sensor_id;sensor_type;location;lat;lon;timestamp;pressure;altitude;pressure_sealevel;temperature;humidity
59367;BME280;45163;47.690;11.770;2023-04-10T00:01:22;93974.81;;;-0.44;100.00
59367;BME280;45163;47.690;11.770;2023-04-10T00:03:48;93973.31;;;-0.42;100.00
59367;BME280;45163;47.690;11.770;2023-04-10T00:06:14;93967.88;;;-0.45;100.00
59367;BME280;45163;47.690;11.770;2023-04-10T00:08:40;93969.44;;;-0.60;100.00
59367;BME280;45163;47.690;11.770;2023-04-10T00:11:06;93958.03;;;-0.57;100.00
59367;BME280;45163;47.690;11.770;2023-04-10T00:13:32;93956.03;;;-0.60;100.00
59367;BME280;45163;47.690;11.770;2023-04-10T00:15:58;93951.81;;;-0.61;100.00
59367;BME280;45163;47.690;11.770;2023-04-10T00:18:24;93951.03;;;-0.46;100.00
59367;BME280;45163;47.690;11.770;2023-04-10T00:20:50;93942.31;;;-0.23;100.00
59367;BME280;45163;47.690;11.770;2023-04-10T00:23:16;93941.69;;;-0.17;100.00
59367;BME280;45163;47.690;11.770;2023-04-10T00:25:42;93937.44;;;-0.18;100.00
59367;BME280;45163;47.690;11.770;2023-04-10T00:28:08;93940.78;;;-0.24;100.00
59367;BME280;45163;47.690;11.770;2023-04-10T00:30:34;93939.56;;;-0.27;100.00
59367;BME280;45163;47.690;11.770;2023-04-10T00:33:00;93926.75;;;-0.34;100.00
59367;BME280;45163;47.690;11.770;2023-04-10T00:35:25;93925.91;;;-0.38;100.00
59367;BME280;45163;47.690;11.770;2023-04-10T00:37:51;93923.84;;;-0.44;100.00
59367;BME280;45163;47.690;11.770;2023-04-10T00:40:22;93922.31;;;-0.45;100.00
59367;BME280;45163;47.690;11.770;2023-04-10T00:42:48;93921.53;;;-0.46;100.00
59367;BME280;45163;47.690;11.770;2023-04-10T00:45:13;93920.41;;;-0.45;100.00
59367;BME280;45163;47.690;11.770;2023-04-10T00:47:39;93922.56;;;-0.51;100.00
59367;BME280;45163;47.690;11.770;2023-04-10T00:50:06;93915.31;;;-0.66;100.00
59367;BME280;45163;47.690;11.770;2023-04-10T00:52:32;93912.56;;;-0.69;100.00
59367;BME280;45163;47.690;11.770;2023-04-10T00:54:58;93907.63;;;-0.67;100.00
59367;BME280;45163;47.690;11.770;2023-04-10T00:57:24;93899.00;;;-0.77;100.00
59367;BME280;45163;47.690;11.770;2023-04-10T00:59:52;93906.75;;;-0.71;100.00
59367;BME280;45163;47.690;11.770;2023-04-10T01:02:18;93897.25;;;-0.69;100.00
59367;BME280;45163;47.690;11.770;2023-04-10T01:04:45;93898.88;;;-0.64;100.00
59367;BME280;45163;47.690;11.770;2023-04-10T01:07:21;93894.41;;;-0.76;100.00
59367;BME280;45163;47.690;11.770;2023-04-10T01:15:21;93901.34;;;-0.75;100.00
59367;BME280;45163;47.690;11.770;2023-04-10T01:18:13;93895.59;;;-0.58;100.00
59367;BME280;45163;47.690;11.770;2023-04-10T01:20:41;93894.03;;;-0.59;100.00
59367;BME280;45163;47.690;11.770;2023-04-10T01:25:55;93900.13;;;-0.42;100.00
59367;BME280;45163;47.690;11.770;2023-04-10T01:31:18;93895.09;;;-0.28;100.00
59367;BME280;45163;47.690;11.770;2023-04-10T01:33:51;93887.56;;;-0.38;100.00
59367;BME280;45163;47.690;11.770;2023-04-10T01:36:22;93889.47;;;-0.39;100.00
59367;BME280;45163;47.690;11.770;2023-04-10T01:38:49;93884.88;;;-0.38;100.00
59367;BME280;45163;47.690;11.770;2023-04-10T01:41:17;93894.19;;;-0.52;100.00
59367;BME280;45163;47.690;11.770;2023-04-10T01:43:47;93893.00;;;-0.54;100.00
59367;BME280;45163;47.690;11.770;2023-04-10T01:46:15;93892.75;;;-0.65;100.00
59367;BME280;45163;47.690;11.770;2023-04-10T01:48:43;93889.28;;;-0.65;100.00
59367;BME280;45163;47.690;11.770;2023-04-10T01:51:11;93885.75;;;-0.69;100.00
59367;BME280;45163;47.690;11.770;2023-04-10T01:53:39;93885.66;;;-0.73;100.00
59367;BME280;45163;47.690;11.770;2023-04-10T01:56:07;93880.59;;;-0.78;100.00
59367;BME280;45163;47.690;11.770;2023-04-10T01:58:34;93882.81;;;-0.80;100.00
59367;BME280;45163;47.690;11.770;2023-04-10T02:01:00;93878.00;;;-0.90;100.00
59367;BME280;45163;47.690;11.770;2023-04-10T02:03:26;93882.78;;;-0.99;100.00
59367;BME280;45163;47.690;11.770;2023-04-10T02:06:08;93880.50;;;-0.97;100.00
59367;BME280;45163;47.690;11.770;2023-04-10T02:08:52;93878.88;;;-1.02;100.00
59367;BME280;45163;47.690;11.770;2023-04-10T02:13:58;93884.22;;;-1.02;100.00
59367;BME280;45163;47.690;11.770;2023-04-10T02:16:25;93884.81;;;-1.09;100.00
59367;BME280;45163;47.690;11.770;2023-04-10T02:18:52;93880.50;;;-1.13;100.00
59367;BME280;45163;47.690;11.770;2023-04-10T02:21:19;93875.59;;;-1.27;100.00
59367;BME280;45163;47.690;11.770;2023-04-10T02:23:45;93874.06;;;-1.28;100.00
59367;BME280;45163;47.690;11.770;2023-04-10T02:26:11;93876.28;;;-1.30;100.00
59367;BME280;45163;47.690;11.770;2023-04-10T02:28:37;93880.00;;;-1.35;100.00
59367;BME280;45163;47.690;11.770;2023-04-10T02:31:05;93879.13;;;-1.39;100.00
59367;BME280;45163;47.690;11.770;2023-04-10T02:33:31;93873.69;;;-1.42;100.00
59367;BME280;45163;47.690;11.770;2023-04-10T02:35:57;93872.41;;;-1.48;100.00
59367;BME280;45163;47.690;11.770;2023-04-10T02:38:24;93878.63;;;-1.44;100.00
59367;BME280;45163;47.690;11.770;2023-04-10T02:40:51;93875.09;;;-1.33;100.00
59367;BME280;45163;47.690;11.770;2023-04-10T02:43:16;93866.28;;;-1.33;100.00
59367;BME280;45163;47.690;11.770;2023-04-10T02:45:43;93867.06;;;-1.33;100.00
59367;BME280;45163;47.690;11.770;2023-04-10T02:48:09;93870.50;;;-1.32;100.00
59367;BME280;45163;47.690;11.770;2023-04-10T02:50:38;93866.50;;;-1.38;100.00
59367;BME280;45163;47.690;11.770;2023-04-10T02:53:04;93872.91;;;-1.43;100.00
59367;BME280;45163;47.690;11.770;2023-04-10T02:55:30;93859.78;;;-1.48;100.00
59367;BME280;45163;47.690;11.770;2023-04-10T02:57:56;93863.78;;;-1.42;100.00
59367;BME280;45163;47.690;11.770;2023-04-10T03:00:22;93865.22;;;-1.44;100.00
59367;BME280;45163;47.690;11.770;2023-04-10T03:02:48;93865.75;;;-1.55;100.00
59367;BME280;45163;47.690;11.770;2023-04-10T03:05:14;93867.72;;;-1.52;100.00
59367;BME280;45163;47.690;11.770;2023-04-10T03:07:40;93876.28;;;-1.30;100.00
59367;BME280;45163;47.690;11.770;2023-04-10T03:10:07;93869.81;;;-1.29;100.00
59367;BME280;45163;47.690;11.770;2023-04-10T03:12:33;93868.16;;;-1.18;100.00
59367;BME280;45163;47.690;11.770;2023-04-10T03:14:59;93866.53;;;-1.07;100.00
59367;BME280;45163;47.690;11.770;2023-04-10T03:17:25;93862.19;;;-0.95;100.00
59367;BME280;45163;47.690;11.770;2023-04-10T03:19:51;93858.31;;;-0.98;100.00
59367;BME280;45163;47.690;11.770;2023-04-10T03:22:17;93860.22;;;-1.14;100.00
59367;BME280;45163;47.690;11.770;2023-04-10T03:24:42;93859.78;;;-1.32;100.00
59367;BME280;45163;47.690;11.770;2023-04-10T03:27:09;93857.97;;;-1.44;100.00
59367;BME280;45163;47.690;11.770;2023-04-10T03:29:35;93864.00;;;-1.47;100.00
59367;BME280;45163;47.690;11.770;2023-04-10T03:32:01;93855.03;;;-1.55;100.00
59367;BME280;45163;47.690;11.770;2023-04-10T03:34:27;93856.75;;;-1.46;100.00
59367;BME280;45163;47.690;11.770;2023-04-10T03:36:53;93861.50;;;-1.56;100.00
59367;BME280;45163;47.690;11.770;2023-04-10T03:39:19;93864.94;;;-1.55;100.00
59367;BME280;45163;47.690;11.770;2023-04-10T03:41:45;93854.88;;;-1.46;100.00
59367;BME280;45163;47.690;11.770;2023-04-10T03:44:11;93859.38;;;-1.50;100.00
59367;BME280;45163;47.690;11.770;2023-04-10T03:46:37;93861.94;;;-1.54;100.00
59367;BME280;45163;47.690;11.770;2023-04-10T03:49:03;93859.38;;;-1.50;100.00
59367;BME280;45163;47.690;11.770;2023-04-10T03:51:29;93865.75;;;-1.55;100.00
59367;BME280;45163;47.690;11.770;2023-04-10T03:53:56;93866.44;;;-1.58;100.00
59367;BME280;45163;47.690;11.770;2023-04-10T03:56:22;93873.91;;;-1.63;100.00
59367;BME280;45163;47.690;11.770;2023-04-10T03:58:48;93867.00;;;-1.64;100.00
59367;BME280;45163;47.690;11.770;2023-04-10T04:01:14;93883.22;;;-1.73;100.00
59367;BME280;45163;47.690;11.770;2023-04-10T04:03:40;93872.97;;;-1.71;100.00
59367;BME280;45163;47.690;11.770;2023-04-10T04:06:06;93882.47;;;-1.73;100.00
59367;BME280;45163;47.690;11.770;2023-04-10T04:08:32;93887.03;;;-1.74;100.00
59367;BME280;45163;47.690;11.770;2023-04-10T04:11:00;93884.78;;;-1.72;100.00
59367;BME280;45163;47.690;11.770;2023-04-10T04:13:26;93874.06;;;-1.72;100.00
59367;BME280;45163;47.690;11.770;2023-04-10T04:15:52;93890.59;;;-1.70;100.00
59367;BME280;45163;47.690;11.770;2023-04-10T04:18:18;93889.03;;;-1.71;100.00
59367;BME280;45163;47.690;11.770;2023-04-10T04:20:44;93893.94;;;-1.73;100.00
59367;BME280;45163;47.690;11.770;2023-04-10T04:23:10;93887.03;;;-1.74;100.00
59367;BME280;45163;47.690;11.770;2023-04-10T04:25:36;93889.50;;;-1.81;100.00
59367;BME280;45163;47.690;11.770;2023-04-10T04:28:02;93890.19;;;-1.84;100.00
59367;BME280;45163;47.690;11.770;2023-04-10T04:30:28;93883.38;;;-1.82;100.00
59367;BME280;45163;47.690;11.770;2023-04-10T04:32:54;93891.94;;;-1.76;100.00
59367;BME280;45163;47.690;11.770;2023-04-10T04:35:20;93892.28;;;-1.78;100.00
59367;BME280;45163;47.690;11.770;2023-04-10T04:37:46;93905.75;;;-1.74;100.00
59367;BME280;45163;47.690;11.770;2023-04-10T04:40:12;93904.38;;;-1.84;100.00
59367;BME280;45163;47.690;11.770;2023-04-10T04:42:38;93900.88;;;-1.84;100.00
59367;BME280;45163;47.690;11.770;2023-04-10T04:45:05;93895.47;;;-1.88;100.00
59367;BME280;45163;47.690;11.770;2023-04-10T04:47:31;93891.56;;;-1.90;100.00
59367;BME280;45163;47.690;11.770;2023-04-10T04:49:57;93895.38;;;-1.91;100.00
59367;BME280;45163;47.690;11.770;2023-04-10T04:52:23;93894.50;;;-1.95;100.00
59367;BME280;45163;47.690;11.770;2023-04-10T04:54:50;93900.50;;;-1.98;100.00
59367;BME280;45163;47.690;11.770;2023-04-10T04:57:16;93900.09;;;-2.01;100.00
59367;BME280;45163;47.690;11.770;2023-04-10T04:59:42;93900.66;;;-2.07;100.00
59367;BME280;45163;47.690;11.770;2023-04-10T05:02:08;93900.19;;;-2.09;100.00
59367;BME280;45163;47.690;11.770;2023-04-10T05:04:33;93897.09;;;-2.11;100.00
59367;BME280;45163;47.690;11.770;2023-04-10T05:07:00;93888.63;;;-2.13;100.00
59367;BME280;45163;47.690;11.770;2023-04-10T05:09:26;93888.88;;;-2.18;100.00
59367;BME280;45163;47.690;11.770;2023-04-10T05:11:52;93893.03;;;-2.21;100.00
59367;BME280;45163;47.690;11.770;2023-04-10T05:14:19;93894.78;;;-2.13;100.00
59367;BME280;45163;47.690;11.770;2023-04-10T05:16:46;93894.19;;;-2.06;100.00
59367;BME280;45163;47.690;11.770;2023-04-10T05:19:12;93897.84;;;-1.98;100.00
59367;BME280;45163;47.690;11.770;2023-04-10T05:21:38;93899.03;;;-1.84;100.00
59367;BME280;45163;47.690;11.770;2023-04-10T05:24:05;93897.28;;;-1.76;100.00
59367;BME280;45163;47.690;11.770;2023-04-10T05:26:31;93896.25;;;-1.71;100.00
59367;BME280;45163;47.690;11.770;2023-04-10T05:28:57;93902.16;;;-1.66;100.00
59367;BME280;45163;47.690;11.770;2023-04-10T05:31:23;93898.56;;;-1.58;100.00
59367;BME280;45163;47.690;11.770;2023-04-10T05:33:49;93897.63;;;-1.49;100.00
59367;BME280;45163;47.690;11.770;2023-04-10T05:36:15;93897.88;;;-1.39;100.00
59367;BME280;45163;47.690;11.770;2023-04-10T05:38:42;93901.00;;;-1.21;100.00
59367;BME280;45163;47.690;11.770;2023-04-10T05:41:08;93896.09;;;-1.03;100.00
59367;BME280;45163;47.690;11.770;2023-04-10T05:43:34;93896.41;;;-0.89;100.00
59367;BME280;45163;47.690;11.770;2023-04-10T05:46:01;93891.72;;;-0.76;100.00
59367;BME280;45163;47.690;11.770;2023-04-10T05:48:27;93893.69;;;-0.57;100.00
59367;BME280;45163;47.690;11.770;2023-04-10T05:50:53;93888.09;;;-0.33;100.00
59367;BME280;45163;47.690;11.770;2023-04-10T05:53:19;93885.56;;;-0.06;100.00
59367;BME280;45163;47.690;11.770;2023-04-10T05:55:49;93891.03;;;0.17;100.00
59367;BME280;45163;47.690;11.770;2023-04-10T05:58:19;93888.44;;;0.43;100.00
59367;BME280;45163;47.690;11.770;2023-04-10T06:00:45;93892.94;;;0.82;100.00
59367;BME280;45163;47.690;11.770;2023-04-10T06:03:11;93895.88;;;1.19;100.00
59367;BME280;45163;47.690;11.770;2023-04-10T06:05:37;93891.59;;;1.67;100.00
59367;BME280;45163;47.690;11.770;2023-04-10T06:08:03;93896.34;;;2.08;100.00
59367;BME280;45163;47.690;11.770;2023-04-10T06:10:29;93892.59;;;2.87;100.00
59367;BME280;45163;47.690;11.770;2023-04-10T06:12:55;93879.84;;;3.28;100.00
59367;BME280;45163;47.690;11.770;2023-04-10T06:15:21;93888.22;;;3.64;100.00
59367;BME280;45163;47.690;11.770;2023-04-10T06:17:47;93881.56;;;4.20;100.00
59367;BME280;45163;47.690;11.770;2023-04-10T06:20:13;93867.75;;;4.50;100.00
59367;BME280;45163;47.690;11.770;2023-04-10T06:22:39;93865.94;;;5.08;100.00
59367;BME280;45163;47.690;11.770;2023-04-10T06:25:05;93864.38;;;4.96;100.00
59367;BME280;45163;47.690;11.770;2023-04-10T06:27:33;93864.41;;;5.60;100.00
59367;BME280;45163;47.690;11.770;2023-04-10T06:30:00;93862.06;;;5.55;100.00
59367;BME280;45163;47.690;11.770;2023-04-10T06:32:26;93862.03;;;5.84;100.00
59367;BME280;45163;47.690;11.770;2023-04-10T06:34:52;93856.78;;;6.54;100.00
59367;BME280;45163;47.690;11.770;2023-04-10T06:37:18;93856.69;;;6.75;100.00
59367;BME280;45163;47.690;11.770;2023-04-10T06:39:44;93843.38;;;6.95;100.00
59367;BME280;45163;47.690;11.770;2023-04-10T06:42:10;93837.22;;;7.39;100.00
59367;BME280;45163;47.690;11.770;2023-04-10T06:44:36;93834.78;;;7.52;100.00
59367;BME280;45163;47.690;11.770;2023-04-10T06:47:02;93833.06;;;7.69;100.00
59367;BME280;45163;47.690;11.770;2023-04-10T06:49:28;93826.88;;;8.06;100.00
59367;BME280;45163;47.690;11.770;2023-04-10T06:51:54;93829.00;;;8.56;100.00
59367;BME280;45163;47.690;11.770;2023-04-10T06:54:20;93828.97;;;8.60;100.00
59367;BME280;45163;47.690;11.770;2023-04-10T06:56:46;93827.72;;;8.37;100.00
59367;BME280;45163;47.690;11.770;2023-04-10T06:59:12;93827.16;;;8.80;100.00
59367;BME280;45163;47.690;11.770;2023-04-10T07:01:38;93826.00;;;8.78;100.00
59367;BME280;45163;47.690;11.770;2023-04-10T07:04:04;93812.25;;;9.39;100.00
59367;BME280;45163;47.690;11.770;2023-04-10T07:06:30;93819.25;;;8.89;100.00
59367;BME280;45163;47.690;11.770;2023-04-10T07:08:56;93813.16;;;9.79;100.00
59367;BME280;45163;47.690;11.770;2023-04-10T07:11:22;93809.44;;;9.46;100.00
59367;BME280;45163;47.690;11.770;2023-04-10T07:13:48;93806.13;;;10.21;100.00
59367;BME280;45163;47.690;11.770;2023-04-10T07:16:18;93800.34;;;10.76;100.00
59367;BME280;45163;47.690;11.770;2023-04-10T07:18:43;93798.97;;;11.04;100.00
59367;BME280;45163;47.690;11.770;2023-04-10T07:21:10;93795.94;;;11.80;100.00
59367;BME280;45163;47.690;11.770;2023-04-10T07:23:37;93788.84;;;12.40;100.00
59367;BME280;45163;47.690;11.770;2023-04-10T07:26:04;93791.69;;;12.37;100.00
59367;BME280;45163;47.690;11.770;2023-04-10T07:28:30;93786.38;;;12.46;100.00
59367;BME280;45163;47.690;11.770;2023-04-10T07:30:57;93794.28;;;12.69;99.50
59367;BME280;45163;47.690;11.770;2023-04-10T07:33:23;93787.16;;;12.59;99.06
59367;BME280;45163;47.690;11.770;2023-04-10T07:35:49;93785.88;;;13.02;93.88
59367;BME280;45163;47.690;11.770;2023-04-10T07:38:16;93783.59;;;13.39;82.09
59367;BME280;45163;47.690;11.770;2023-04-10T07:40:42;93789.09;;;13.86;79.39
59367;BME280;45163;47.690;11.770;2023-04-10T07:43:08;93782.59;;;13.33;74.40
59367;BME280;45163;47.690;11.770;2023-04-10T07:45:34;93778.75;;;12.79;77.93
59367;BME280;45163;47.690;11.770;2023-04-10T07:48:00;93780.19;;;13.22;79.17
59367;BME280;45163;47.690;11.770;2023-04-10T07:50:27;93773.38;;;13.39;67.90
59367;BME280;45163;47.690;11.770;2023-04-10T07:52:53;93775.47;;;13.10;57.09
59367;BME280;45163;47.690;11.770;2023-04-10T07:55:19;93770.81;;;14.05;57.45
59367;BME280;45163;47.690;11.770;2023-04-10T07:57:45;93777.34;;;14.64;54.94
59367;BME280;45163;47.690;11.770;2023-04-10T08:00:11;93769.59;;;14.72;51.95
59367;BME280;45163;47.690;11.770;2023-04-10T08:02:38;93766.41;;;14.30;50.59
59367;BME280;45163;47.690;11.770;2023-04-10T08:05:06;93764.84;;;15.44;44.59
59367;BME280;45163;47.690;11.770;2023-04-10T08:07:32;93759.72;;;15.15;48.70
59367;BME280;45163;47.690;11.770;2023-04-10T08:09:58;93760.75;;;15.08;49.46
59367;BME280;45163;47.690;11.770;2023-04-10T08:12:24;93766.13;;;14.81;48.94
59367;BME280;45163;47.690;11.770;2023-04-10T08:14:50;93766.09;;;14.50;48.79
59367;BME280;45163;47.690;11.770;2023-04-10T08:17:16;93770.91;;;15.70;49.17
59367;BME280;45163;47.690;11.770;2023-04-10T08:19:42;93770.38;;;15.53;46.67
59367;BME280;45163;47.690;11.770;2023-04-10T08:22:08;93768.00;;;15.92;43.46
59367;BME280;45163;47.690;11.770;2023-04-10T08:24:34;93762.66;;;16.43;42.30
59367;BME280;45163;47.690;11.770;2023-04-10T08:27:00;93758.88;;;17.02;43.34
59367;BME280;45163;47.690;11.770;2023-04-10T08:29:26;93761.88;;;16.34;43.35
59367;BME280;45163;47.690;11.770;2023-04-10T08:31:52;93753.72;;;17.28;39.56
59367;BME280;45163;47.690;11.770;2023-04-10T08:34:19;93763.53;;;16.86;38.64
59367;BME280;45163;47.690;11.770;2023-04-10T08:36:46;93752.31;;;16.99;38.97
59367;BME280;45163;47.690;11.770;2023-04-10T08:39:11;93754.00;;;17.39;38.09
59367;BME280;45163;47.690;11.770;2023-04-10T08:41:39;93757.44;;;17.82;37.74
59367;BME280;45163;47.690;11.770;2023-04-10T08:44:05;93755.28;;;16.68;37.62
59367;BME280;45163;47.690;11.770;2023-04-10T08:46:35;93754.53;;;16.58;38.89
59367;BME280;45163;47.690;11.770;2023-04-10T08:49:03;93754.84;;;18.02;36.97
59367;BME280;45163;47.690;11.770;2023-04-10T08:51:41;93754.00;;;17.30;35.06
59367;BME280;45163;47.690;11.770;2023-04-10T08:54:18;93753.34;;;18.16;35.98
59367;BME280;45163;47.690;11.770;2023-04-10T08:56:50;93745.00;;;18.25;34.83
59367;BME280;45163;47.690;11.770;2023-04-10T08:59:18;93741.34;;;17.47;31.21
59367;BME280;45163;47.690;11.770;2023-04-10T09:01:44;93746.84;;;17.56;32.57
59367;BME280;45163;47.690;11.770;2023-04-10T09:04:12;93738.13;;;16.73;32.43
59367;BME280;45163;47.690;11.770;2023-04-10T09:06:38;93737.50;;;18.55;32.77
59367;BME280;45163;47.690;11.770;2023-04-10T09:09:07;93740.56;;;17.23;29.80
59367;BME280;45163;47.690;11.770;2023-04-10T09:14:23;93730.94;;;16.57;31.07
59367;BME280;45163;47.690;11.770;2023-04-10T09:16:50;93723.69;;;18.40;29.73
59367;BME280;45163;47.690;11.770;2023-04-10T09:19:30;93731.34;;;18.22;29.34
59367;BME280;45163;47.690;11.770;2023-04-10T09:21:56;93721.47;;;17.91;29.27
59367;BME280;45163;47.690;11.770;2023-04-10T09:24:23;93725.38;;;18.38;29.05
59367;BME280;45163;47.690;11.770;2023-04-10T09:26:49;93720.72;;;18.44;31.63
59367;BME280;45163;47.690;11.770;2023-04-10T09:29:15;93731.00;;;18.29;30.25
59367;BME280;45163;47.690;11.770;2023-04-10T09:31:42;93730.94;;;17.75;29.87
59367;BME280;45163;47.690;11.770;2023-04-10T09:34:16;93724.09;;;18.09;29.11
59367;BME280;45163;47.690;11.770;2023-04-10T09:36:48;93723.75;;;17.92;28.96
59367;BME280;45163;47.690;11.770;2023-04-10T09:39:17;93718.50;;;18.33;27.99
59367;BME280;45163;47.690;11.770;2023-04-10T09:41:48;93715.56;;;19.61;26.57
59367;BME280;45163;47.690;11.770;2023-04-10T09:44:17;93718.66;;;19.48;28.50
59367;BME280;45163;47.690;11.770;2023-04-10T09:46:44;93699.44;;;20.47;27.27
59367;BME280;45163;47.690;11.770;2023-04-10T09:49:11;93705.84;;;20.84;28.33
59367;BME280;45163;47.690;11.770;2023-04-10T09:51:37;93704.22;;;20.72;25.21
59367;BME280;45163;47.690;11.770;2023-04-10T09:54:04;93704.63;;;19.93;26.56
59367;BME280;45163;47.690;11.770;2023-04-10T09:56:32;93692.09;;;20.44;28.14
59367;BME280;45163;47.690;11.770;2023-04-10T09:59:02;93692.44;;;20.05;26.27
59367;BME280;45163;47.690;11.770;2023-04-10T10:01:29;93695.50;;;20.33;24.65
59367;BME280;45163;47.690;11.770;2023-04-10T10:04:03;93676.28;;;20.76;24.76
59367;BME280;45163;47.690;11.770;2023-04-10T10:06:30;93683.66;;;20.53;26.50
59367;BME280;45163;47.690;11.770;2023-04-10T10:09:04;93673.31;;;21.54;26.50
59367;BME280;45163;47.690;11.770;2023-04-10T10:11:32;93665.75;;;21.60;22.46
59367;BME280;45163;47.690;11.770;2023-04-10T10:14:02;93670.59;;;20.59;26.14
59367;BME280;45163;47.690;11.770;2023-04-10T10:16:49;93662.22;;;20.53;25.99
59367;BME280;45163;47.690;11.770;2023-04-10T10:19:29;93664.78;;;21.63;25.00
59367;BME280;45163;47.690;11.770;2023-04-10T10:21:59;93658.72;;;20.58;24.01
59367;BME280;45163;47.690;11.770;2023-04-10T10:24:27;93657.25;;;20.37;24.86
59367;BME280;45163;47.690;11.770;2023-04-10T10:26:54;93649.59;;;21.16;25.46
59367;BME280;45163;47.690;11.770;2023-04-10T10:29:20;93661.03;;;19.32;24.82
59367;BME280;45163;47.690;11.770;2023-04-10T10:31:48;93655.56;;;20.45;24.85
59367;BME280;45163;47.690;11.770;2023-04-10T10:34:15;93646.38;;;20.59;24.34
59367;BME280;45163;47.690;11.770;2023-04-10T10:36:41;93641.56;;;20.86;22.86
59367;BME280;45163;47.690;11.770;2023-04-10T10:45:05;93639.91;;;22.02;22.08
59367;BME280;45163;47.690;11.770;2023-04-10T10:47:33;93638.81;;;21.29;21.79
59367;BME280;45163;47.690;11.770;2023-04-10T10:50:03;93636.19;;;21.51;23.02
59367;BME280;45163;47.690;11.770;2023-04-10T10:52:49;93630.97;;;23.14;21.46
59367;BME280;45163;47.690;11.770;2023-04-10T10:57:53;93618.28;;;22.51;26.42
59367;BME280;45163;47.690;11.770;2023-04-10T11:00:20;93599.00;;;21.37;25.96
59367;BME280;45163;47.690;11.770;2023-04-10T11:06:01;93598.19;;;23.59;21.34
59367;BME280;45163;47.690;11.770;2023-04-10T11:13:27;93594.63;;;23.59;26.19
59367;BME280;45163;47.690;11.770;2023-04-10T11:15:55;93585.34;;;22.10;26.95
59367;BME280;45163;47.690;11.770;2023-04-10T11:21:20;93575.91;;;21.74;23.55
59367;BME280;45163;47.690;11.770;2023-04-10T11:31:37;93578.59;;;22.28;29.18
59367;BME280;45163;47.690;11.770;2023-04-10T11:34:07;93564.81;;;21.80;27.38
59367;BME280;45163;47.690;11.770;2023-04-10T11:36:40;93568.97;;;22.29;26.94
59367;BME280;45163;47.690;11.770;2023-04-10T11:39:08;93566.69;;;22.39;24.73
59367;BME280;45163;47.690;11.770;2023-04-10T11:41:39;93563.41;;;22.52;25.65
59367;BME280;45163;47.690;11.770;2023-04-10T11:44:09;93567.38;;;22.00;26.25
59367;BME280;45163;47.690;11.770;2023-04-10T11:46:39;93554.03;;;22.83;26.24
59367;BME280;45163;47.690;11.770;2023-04-10T11:49:07;93550.66;;;23.35;26.19
59367;BME280;45163;47.690;11.770;2023-04-10T11:51:35;93542.25;;;23.41;23.77
59367;BME280;45163;47.690;11.770;2023-04-10T11:54:08;93539.50;;;23.35;23.60
59367;BME280;45163;47.690;11.770;2023-04-10T11:56:36;93539.81;;;23.20;24.34
59367;BME280;45163;47.690;11.770;2023-04-10T11:59:02;93541.53;;;23.93;24.97
59367;BME280;45163;47.690;11.770;2023-04-10T12:01:34;93538.31;;;23.83;25.39
59367;BME280;45163;47.690;11.770;2023-04-10T12:04:00;93521.94;;;24.75;23.51
59367;BME280;45163;47.690;11.770;2023-04-10T12:06:26;93530.44;;;23.81;25.62
59367;BME280;45163;47.690;11.770;2023-04-10T12:08:53;93515.97;;;23.89;26.29
59367;BME280;45163;47.690;11.770;2023-04-10T12:11:22;93519.59;;;22.86;27.04
59367;BME280;45163;47.690;11.770;2023-04-10T12:13:56;93518.88;;;22.69;27.00
59367;BME280;45163;47.690;11.770;2023-04-10T12:16:23;93520.13;;;22.73;26.95
59367;BME280;45163;47.690;11.770;2023-04-10T12:18:49;93510.13;;;23.86;26.32
59367;BME280;45163;47.690;11.770;2023-04-10T12:21:16;93517.25;;;24.59;23.97
59367;BME280;45163;47.690;11.770;2023-04-10T12:23:42;93514.22;;;24.21;25.15
59367;BME280;45163;47.690;11.770;2023-04-10T12:26:17;93513.34;;;24.02;23.80
59367;BME280;45163;47.690;11.770;2023-04-10T12:28:55;93518.66;;;23.53;25.08
59367;BME280;45163;47.690;11.770;2023-04-10T12:31:32;93516.84;;;23.61;24.38
59367;BME280;45163;47.690;11.770;2023-04-10T12:34:00;93510.78;;;23.57;24.15
59367;BME280;45163;47.690;11.770;2023-04-10T12:36:27;93507.50;;;24.41;23.94
59367;BME280;45163;47.690;11.770;2023-04-10T12:38:55;93500.13;;;25.23;22.53
59367;BME280;45163;47.690;11.770;2023-04-10T12:41:27;93501.31;;;25.03;25.58
59367;BME280;45163;47.690;11.770;2023-04-10T12:44:12;93501.88;;;24.47;25.38
59367;BME280;45163;47.690;11.770;2023-04-10T12:46:39;93499.53;;;24.21;22.95
59367;BME280;45163;47.690;11.770;2023-04-10T12:49:10;93505.91;;;23.74;24.28
59367;BME280;45163;47.690;11.770;2023-04-10T12:51:43;93486.38;;;24.51;23.03
59367;BME280;45163;47.690;11.770;2023-04-10T12:54:10;93495.13;;;23.48;26.27
59367;BME280;45163;47.690;11.770;2023-04-10T12:56:43;93497.50;;;23.27;24.88
59367;BME280;45163;47.690;11.770;2023-04-10T12:59:09;93492.03;;;23.57;26.26
59367;BME280;45163;47.690;11.770;2023-04-10T13:01:38;93472.00;;;24.36;26.38
59367;BME280;45163;47.690;11.770;2023-04-10T13:04:05;93481.38;;;23.67;25.59
59367;BME280;45163;47.690;11.770;2023-04-10T13:06:31;93472.13;;;24.19;25.23
59367;BME280;45163;47.690;11.770;2023-04-10T13:08:57;93471.53;;;25.36;23.76
59367;BME280;45163;47.690;11.770;2023-04-10T13:11:23;93474.16;;;25.66;24.45
59367;BME280;45163;47.690;11.770;2023-04-10T13:13:49;93477.28;;;25.43;24.65
59367;BME280;45163;47.690;11.770;2023-04-10T13:16:17;93476.22;;;24.48;24.73
59367;BME280;45163;47.690;11.770;2023-04-10T13:18:43;93473.53;;;24.67;24.72
59367;BME280;45163;47.690;11.770;2023-04-10T13:21:09;93472.88;;;24.55;25.12
59367;BME280;45163;47.690;11.770;2023-04-10T13:23:35;93468.44;;;24.41;26.39
59367;BME280;45163;47.690;11.770;2023-04-10T13:26:01;93465.38;;;23.73;24.80
59367;BME280;45163;47.690;11.770;2023-04-10T13:28:27;93470.44;;;23.22;27.50
59367;BME280;45163;47.690;11.770;2023-04-10T13:30:53;93458.88;;;23.95;26.55